Station Historical Data
Daily Summary for July 31, 2017 Units:  Both    English   Metric
« Previous Day
Next Day »
Daily Weekly Monthly Yearly Custom
  High: Low: Average:
Temperature: 82.5 °F /  28.1 °C 61.2 °F /  16.2 °C 72.3 °F /  22.4 °C
Dew Point: 69.2 °F /  20.7 °C 56.8 °F /  13.8 °C 64.1 °F /  17.8 °C
Humidity: 89% 57% 76%
Wind Speed: 11.0mph /  17.7km/h - 2.7mph /  4.3km/h
Wind Gust: 15.0mph /  24.1km/h - -
Wind- - WSW
Pressure: 30.10 in /  1019.2 hPa 30.03 in /  1016.8 hPa -
Precipitation: 0.00 in /  0 mm    
Historical Graphs
 
 
Tabular Data for July 31, 2017
Time Temperature Dew Point Pressure Wind Wind Speed Wind Gust Humidity Rainfall Rate (Hourly)
00:04 69.5 °F /  20.8 °C 58.9 °F /  14.9 °C 30.08in /  1018.5hPa Calm   1.0mph /  1.6km/h 69% 0.00in /  0mm
00:09 69.5 °F /  20.8 °C 58.9 °F /  14.9 °C 30.08in /  1018.5hPa Calm   1.0mph /  1.6km/h 69% 0.00in /  0mm
00:14 69.3 °F /  20.7 °C 58.3 °F /  14.6 °C 30.08in /  1018.5hPa Calm     68% 0.00in /  0mm
00:19 69.0 °F /  20.6 °C 58.4 °F /  14.7 °C 30.08in /  1018.5hPa Calm     69% 0.00in /  0mm
00:24 68.6 °F /  20.3 °C 58.0 °F /  14.4 °C 30.08in /  1018.5hPa Calm     69% 0.00in /  0mm
00:29 68.1 °F /  20.1 °C 57.9 °F /  14.4 °C 30.08in /  1018.5hPa Calm     70% 0.00in /  0mm
00:34 67.9 °F /  19.9 °C 57.8 °F /  14.3 °C 30.08in /  1018.5hPa Calm     70% 0.00in /  0mm
00:39 67.6 °F /  19.8 °C 57.9 °F /  14.4 °C 30.08in /  1018.5hPa Calm     71% 0.00in /  0mm
00:44 67.2 °F /  19.6 °C 57.9 °F /  14.4 °C 30.08in /  1018.5hPa Calm     72% 0.00in /  0mm
00:49 66.9 °F /  19.4 °C 58.0 °F /  14.4 °C 30.09in /  1018.8hPa Calm     73% 0.00in /  0mm
00:54 66.5 °F /  19.2 °C 58.0 °F /  14.4 °C 30.09in /  1018.8hPa Calm     74% 0.00in /  0mm
00:59 66.4 °F /  19.1 °C 57.9 °F /  14.4 °C 30.09in /  1018.8hPa Calm     74% 0.00in /  0mm
01:04 66.2 °F /  19 °C 58.0 °F /  14.4 °C 30.09in /  1018.8hPa Calm     75% 0.00in /  0mm
01:09 66.1 °F /  18.9 °C 57.9 °F /  14.4 °C 30.09in /  1018.8hPa Calm     75% 0.00in /  0mm
01:14 65.7 °F /  18.7 °C 57.6 °F /  14.2 °C 30.08in /  1018.5hPa Calm     75% 0.00in /  0mm
01:19 65.4 °F /  18.6 °C 57.6 °F /  14.2 °C 30.08in /  1018.5hPa Calm     76% 0.00in /  0mm
01:24 65.3 °F /  18.5 °C 57.5 °F /  14.2 °C 30.08in /  1018.5hPa Calm     76% 0.00in /  0mm
01:29 65.2 °F /  18.4 °C 57.4 °F /  14.1 °C 30.08in /  1018.5hPa Calm     76% 0.00in /  0mm
01:34 65.1 °F /  18.4 °C 57.3 °F /  14.1 °C 30.08in /  1018.5hPa Calm     76% 0.00in /  0mm
01:39 64.8 °F /  18.2 °C 57.4 °F /  14.1 °C 30.08in /  1018.5hPa Calm     77% 0.00in /  0mm
01:44 64.6 °F /  18.1 °C 57.2 °F /  14 °C 30.08in /  1018.5hPa Calm     77% 0.00in /  0mm
01:49 64.4 °F /  18 °C 57.4 °F /  14.1 °C 30.08in /  1018.5hPa Calm     78% 0.00in /  0mm
01:54 64.2 °F /  17.9 °C 57.5 °F /  14.2 °C 30.08in /  1018.5hPa Calm     79% 0.00in /  0mm
01:59 64.1 °F /  17.8 °C 57.5 °F /  14.2 °C 30.08in /  1018.5hPa Calm     79% 0.00in /  0mm
02:04 63.8 °F /  17.7 °C 57.2 °F /  14 °C 30.08in /  1018.5hPa Calm     79% 0.00in /  0mm
02:09 63.8 °F /  17.7 °C 57.5 °F /  14.2 °C 30.08in /  1018.5hPa Calm     80% 0.00in /  0mm
02:14 63.7 °F /  17.6 °C 57.4 °F /  14.1 °C 30.08in /  1018.5hPa Calm     80% 0.00in /  0mm
02:19 63.6 °F /  17.6 °C 57.3 °F /  14.1 °C 30.08in /  1018.5hPa Calm     80% 0.00in /  0mm
02:24 63.3 °F /  17.4 °C 57.0 °F /  13.9 °C 30.08in /  1018.5hPa Calm     80% 0.00in /  0mm
02:29 63.2 °F /  17.3 °C 57.3 °F /  14.1 °C 30.08in /  1018.5hPa Calm     81% 0.00in /  0mm
02:34 63.1 °F /  17.3 °C 57.2 °F /  14 °C 30.08in /  1018.5hPa Calm     81% 0.00in /  0mm
02:39 63.1 °F /  17.3 °C 57.2 °F /  14 °C 30.08in /  1018.5hPa Calm     81% 0.00in /  0mm
02:44 63.0 °F /  17.2 °C 57.1 °F /  13.9 °C 30.08in /  1018.5hPa Calm     81% 0.00in /  0mm
02:49 62.9 °F /  17.2 °C 57.3 °F /  14.1 °C 30.08in /  1018.5hPa Calm     82% 0.00in /  0mm
02:54 62.8 °F /  17.1 °C 57.2 °F /  14 °C 30.08in /  1018.5hPa Calm     82% 0.00in /  0mm
02:59 62.7 °F /  17.1 °C 57.5 °F /  14.2 °C 30.08in /  1018.5hPa Calm     83% 0.00in /  0mm
03:04 62.7 °F /  17.1 °C 57.5 °F /  14.2 °C 30.08in /  1018.5hPa Calm     83% 0.00in /  0mm
03:09 62.6 °F /  17 °C 57.4 °F /  14.1 °C 30.08in /  1018.5hPa Calm     83% 0.00in /  0mm
03:14 62.8 °F /  17.1 °C 57.6 °F /  14.2 °C 30.08in /  1018.5hPa Calm     83% 0.00in /  0mm
03:19 62.7 °F /  17.1 °C 57.5 °F /  14.2 °C 30.08in /  1018.5hPa Calm     83% 0.00in /  0mm
03:24 62.5 °F /  16.9 °C 57.3 °F /  14.1 °C 30.08in /  1018.5hPa Calm     83% 0.00in /  0mm
03:29 62.4 °F /  16.9 °C 57.2 °F /  14 °C 30.08in /  1018.5hPa Calm     83% 0.00in /  0mm
03:34 62.4 °F /  16.9 °C 57.2 °F /  14 °C 30.08in /  1018.5hPa Calm     83% 0.00in /  0mm
03:39 62.5 °F /  16.9 °C 57.3 °F /  14.1 °C 30.08in /  1018.5hPa Calm     83% 0.00in /  0mm
03:44 62.4 °F /  16.9 °C 57.2 °F /  14 °C 30.08in /  1018.5hPa Calm     83% 0.00in /  0mm
03:49 62.3 °F /  16.8 °C 57.1 °F /  13.9 °C 30.07in /  1018.2hPa Calm     83% 0.00in /  0mm
03:54 62.1 °F /  16.7 °C 57.2 °F /  14 °C 30.08in /  1018.5hPa Calm     84% 0.00in /  0mm
03:59 62.0 °F /  16.7 °C 57.1 °F /  13.9 °C 30.08in /  1018.5hPa Calm     84% 0.00in /  0mm
04:04 61.9 °F /  16.6 °C 57.3 °F /  14.1 °C 30.08in /  1018.5hPa Calm     85% 0.00in /  0mm
04:09 61.6 °F /  16.4 °C 57.0 °F /  13.9 °C 30.08in /  1018.5hPa Calm     85% 0.00in /  0mm
04:14 61.4 °F /  16.3 °C 56.8 °F /  13.8 °C 30.08in /  1018.5hPa Calm     85% 0.00in /  0mm
04:19 61.4 °F /  16.3 °C 57.2 °F /  14 °C 30.08in /  1018.5hPa Calm     86% 0.00in /  0mm
04:24 61.4 °F /  16.3 °C 57.2 °F /  14 °C 30.08in /  1018.5hPa Calm     86% 0.00in /  0mm
04:29 61.5 °F /  16.4 °C 57.6 °F /  14.2 °C 30.08in /  1018.5hPa Calm     87% 0.00in /  0mm
04:34 61.3 °F /  16.3 °C 57.1 °F /  13.9 °C 30.08in /  1018.5hPa Calm     86% 0.00in /  0mm
04:39 61.2 °F /  16.2 °C 57.3 °F /  14.1 °C 30.08in /  1018.5hPa Calm     87% 0.00in /  0mm
04:44 61.2 °F /  16.2 °C 57.3 °F /  14.1 °C 30.08in /  1018.5hPa Calm     87% 0.00in /  0mm
04:54 61.4 °F /  16.3 °C 57.8 °F /  14.3 °C 30.08in /  1018.5hPa Calm     88% 0.00in /  0mm
04:59 61.2 °F /  16.2 °C 57.6 °F /  14.2 °C 30.08in /  1018.5hPa Calm     88% 0.00in /  0mm
05:04 61.3 °F /  16.3 °C 57.7 °F /  14.3 °C 30.08in /  1018.5hPa Calm     88% 0.00in /  0mm
05:09 61.5 °F /  16.4 °C 58.2 °F /  14.6 °C 30.09in /  1018.8hPa Calm     89% 0.00in /  0mm
05:14 61.6 °F /  16.4 °C 58.3 °F /  14.6 °C 30.08in /  1018.5hPa Calm     89% 0.00in /  0mm
05:19 61.8 °F /  16.6 °C 58.5 °F /  14.7 °C 30.08in /  1018.5hPa Calm     89% 0.00in /  0mm
05:24 61.8 °F /  16.6 °C 58.5 °F /  14.7 °C 30.08in /  1018.5hPa Calm     89% 0.00in /  0mm
05:29 61.7 °F /  16.5 °C 58.4 °F /  14.7 °C 30.08in /  1018.5hPa Calm     89% 0.00in /  0mm
05:34 61.8 °F /  16.6 °C 58.5 °F /  14.7 °C 30.08in /  1018.5hPa Calm     89% 0.00in /  0mm
05:39 61.8 °F /  16.6 °C 58.5 °F /  14.7 °C 30.08in /  1018.5hPa Calm     89% 0.00in /  0mm
05:44 61.8 °F /  16.6 °C 58.5 °F /  14.7 °C 30.09in /  1018.8hPa Calm     89% 0.00in /  0mm
05:49 61.8 °F /  16.6 °C 58.5 °F /  14.7 °C 30.09in /  1018.8hPa Calm     89% 0.00in /  0mm
05:54 61.8 °F /  16.6 °C 58.5 °F /  14.7 °C 30.09in /  1018.8hPa Calm     89% 0.00in /  0mm
05:59 61.6 °F /  16.4 °C 58.3 °F /  14.6 °C 30.09in /  1018.8hPa Calm     89% 0.00in /  0mm
06:04 61.4 °F /  16.3 °C 58.1 °F /  14.5 °C 30.09in /  1018.8hPa Calm     89% 0.00in /  0mm
06:09 61.4 °F /  16.3 °C 58.1 °F /  14.5 °C 30.09in /  1018.8hPa Calm     89% 0.00in /  0mm
06:14 61.6 °F /  16.4 °C 58.3 °F /  14.6 °C 30.09in /  1018.8hPa Calm     89% 0.00in /  0mm
06:19 61.5 °F /  16.4 °C 58.2 °F /  14.6 °C 30.09in /  1018.8hPa Calm     89% 0.00in /  0mm
06:24 61.9 °F /  16.6 °C 58.6 °F /  14.8 °C 30.09in /  1018.8hPa Calm     89% 0.00in /  0mm
06:29 62.2 °F /  16.8 °C 58.9 °F /  14.9 °C 30.09in /  1018.8hPa Calm     89% 0.00in /  0mm
06:34 62.5 °F /  16.9 °C 59.2 °F /  15.1 °C 30.09in /  1018.8hPa Calm     89% 0.00in /  0mm
06:39 62.8 °F /  17.1 °C 59.5 °F /  15.3 °C 30.09in /  1018.8hPa Calm     89% 0.00in /  0mm
06:44 62.9 °F /  17.2 °C 59.3 °F /  15.2 °C 30.09in /  1018.8hPa Calm     88% 0.00in /  0mm
06:49 63.2 °F /  17.3 °C 59.6 °F /  15.3 °C 30.09in /  1018.8hPa Calm     88% 0.00in /  0mm
06:54 63.5 °F /  17.5 °C 59.9 °F /  15.5 °C 30.09in /  1018.8hPa Calm     88% 0.00in /  0mm
06:59 63.9 °F /  17.7 °C 60.0 °F /  15.6 °C 30.09in /  1018.8hPa Calm     87% 0.00in /  0mm
07:04 64.3 °F /  17.9 °C 60.3 °F /  15.7 °C 30.09in /  1018.8hPa Calm     87% 0.00in /  0mm
07:09 64.8 °F /  18.2 °C 60.5 °F /  15.8 °C 30.09in /  1018.8hPa Calm     86% 0.00in /  0mm
07:14 65.2 °F /  18.4 °C 60.6 °F /  15.9 °C 30.09in /  1018.8hPa Calm     85% 0.00in /  0mm
07:19 65.7 °F /  18.7 °C 61.1 °F /  16.2 °C 30.09in /  1018.8hPa Calm     85% 0.00in /  0mm
07:24 66.2 °F /  19 °C 61.6 °F /  16.4 °C 30.09in /  1018.8hPa SW 1.0mph /  1.6km/h 5.0mph /  8km/h 85% 0.00in /  0mm
07:29 66.7 °F /  19.3 °C 61.7 °F /  16.5 °C 30.09in /  1018.8hPa SW 1.0mph /  1.6km/h 5.0mph /  8km/h 84% 0.00in /  0mm
07:34 67.2 °F /  19.6 °C 62.2 °F /  16.8 °C 30.09in /  1018.8hPa SW 1.0mph /  1.6km/h 4.0mph /  6.4km/h 84% 0.00in /  0mm
07:39 67.7 °F /  19.8 °C 62.7 °F /  17.1 °C 30.09in /  1018.8hPa SW 1.0mph /  1.6km/h 4.0mph /  6.4km/h 84% 0.00in /  0mm
07:44 68.2 °F /  20.1 °C 62.8 °F /  17.1 °C 30.09in /  1018.8hPa SW 2.0mph /  3.2km/h 5.0mph /  8km/h 83% 0.00in /  0mm
07:49 68.7 °F /  20.4 °C 63.3 °F /  17.4 °C 30.09in /  1018.8hPa SSW 1.0mph /  1.6km/h 4.0mph /  6.4km/h 83% 0.00in /  0mm
07:54 69.1 °F /  20.6 °C 63.4 °F /  17.4 °C 30.10in /  1019.2hPa SW 1.0mph /  1.6km/h 5.0mph /  8km/h 82% 0.00in /  0mm
07:59 69.6 °F /  20.9 °C 63.9 °F /  17.7 °C 30.10in /  1019.2hPa WSW 3.0mph /  4.8km/h 6.0mph /  9.7km/h 82% 0.00in /  0mm
08:04 70.2 °F /  21.2 °C 64.4 °F /  18 °C 30.09in /  1018.8hPa WSW 2.0mph /  3.2km/h 4.0mph /  6.4km/h 82% 0.00in /  0mm
08:09 70.7 °F /  21.5 °C 64.6 °F /  18.1 °C 30.10in /  1019.2hPa SSW 2.0mph /  3.2km/h 6.0mph /  9.7km/h 81% 0.00in /  0mm
08:14 71.0 °F /  21.7 °C 64.9 °F /  18.3 °C 30.10in /  1019.2hPa SSW 1.0mph /  1.6km/h 7.0mph /  11.3km/h 81% 0.00in /  0mm
08:19 71.4 °F /  21.9 °C 64.9 °F /  18.3 °C 30.10in /  1019.2hPa SW 3.0mph /  4.8km/h 7.0mph /  11.3km/h 80% 0.00in /  0mm
08:24 71.6 °F /  22 °C 64.7 °F /  18.2 °C 30.09in /  1018.8hPa SW 3.0mph /  4.8km/h 7.0mph /  11.3km/h 79% 0.00in /  0mm
08:29 71.7 °F /  22.1 °C 64.8 °F /  18.2 °C 30.09in /  1018.8hPa SW 4.0mph /  6.4km/h 8.0mph /  12.9km/h 79% 0.00in /  0mm
08:34 71.9 °F /  22.2 °C 65.0 °F /  18.3 °C 30.09in /  1018.8hPa SW 4.0mph /  6.4km/h 8.0mph /  12.9km/h 79% 0.00in /  0mm
08:39 72.2 °F /  22.3 °C 65.3 °F /  18.5 °C 30.09in /  1018.8hPa SW 4.0mph /  6.4km/h 8.0mph /  12.9km/h 79% 0.00in /  0mm
08:44 72.5 °F /  22.5 °C 65.6 °F /  18.7 °C 30.09in /  1018.8hPa SW 4.0mph /  6.4km/h 10.0mph /  16.1km/h 79% 0.00in /  0mm
08:49 72.7 °F /  22.6 °C 65.8 °F /  18.8 °C 30.09in /  1018.8hPa SW 4.0mph /  6.4km/h 10.0mph /  16.1km/h 79% 0.00in /  0mm
08:54 72.9 °F /  22.7 °C 66.0 °F /  18.9 °C 30.09in /  1018.8hPa WSW 2.0mph /  3.2km/h 7.0mph /  11.3km/h 79% 0.00in /  0mm
08:59 73.1 °F /  22.8 °C 65.8 °F /  18.8 °C 30.10in /  1019.2hPa WSW 3.0mph /  4.8km/h 9.0mph /  14.5km/h 78% 0.00in /  0mm
09:04 73.6 °F /  23.1 °C 66.3 °F /  19.1 °C 30.09in /  1018.8hPa WSW 5.0mph /  8km/h 9.0mph /  14.5km/h 78% 0.00in /  0mm
09:09 73.9 °F /  23.3 °C 66.2 °F /  19 °C 30.09in /  1018.8hPa WSW 3.0mph /  4.8km/h 9.0mph /  14.5km/h 77% 0.00in /  0mm
09:14 74.0 °F /  23.3 °C 66.3 °F /  19.1 °C 30.09in /  1018.8hPa WSW 5.0mph /  8km/h 10.0mph /  16.1km/h 77% 0.00in /  0mm
09:19 74.0 °F /  23.3 °C 66.0 °F /  18.9 °C 30.10in /  1019.2hPa WSW 5.0mph /  8km/h 10.0mph /  16.1km/h 76% 0.00in /  0mm
09:24 74.5 °F /  23.6 °C 66.1 °F /  18.9 °C 30.09in /  1018.8hPa WSW 5.0mph /  8km/h 10.0mph /  16.1km/h 75% 0.00in /  0mm
09:29 74.5 °F /  23.6 °C 66.4 °F /  19.1 °C 30.09in /  1018.8hPa SW 5.0mph /  8km/h 9.0mph /  14.5km/h 76% 0.00in /  0mm
09:34 74.9 °F /  23.8 °C 66.4 °F /  19.1 °C 30.10in /  1019.2hPa WSW 5.0mph /  8km/h 11.0mph /  17.7km/h 75% 0.00in /  0mm
09:39 75.5 °F /  24.2 °C 67.0 °F /  19.4 °C 30.10in /  1019.2hPa WSW 5.0mph /  8km/h 11.0mph /  17.7km/h 75% 0.00in /  0mm
09:44 75.9 °F /  24.4 °C 66.6 °F /  19.2 °C 30.09in /  1018.8hPa WSW 4.0mph /  6.4km/h 10.0mph /  16.1km/h 73% 0.00in /  0mm
09:49 75.6 °F /  24.2 °C 67.1 °F /  19.5 °C 30.09in /  1018.8hPa SW 11.0mph /  17.7km/h 11.0mph /  17.7km/h 75% 0.00in /  0mm
09:54 75.6 °F /  24.2 °C 67.1 °F /  19.5 °C 30.10in /  1019.2hPa West 4.0mph /  6.4km/h 13.0mph /  20.9km/h 75% 0.00in /  0mm
09:59 76.0 °F /  24.4 °C 67.5 °F /  19.7 °C 30.10in /  1019.2hPa WSW 6.0mph /  9.7km/h 11.0mph /  17.7km/h 75% 0.00in /  0mm
10:04 76.2 °F /  24.6 °C 67.3 °F /  19.6 °C 30.10in /  1019.2hPa WSW 8.0mph /  12.9km/h 9.0mph /  14.5km/h 74% 0.00in /  0mm
10:09 76.5 °F /  24.7 °C 67.2 °F /  19.6 °C 30.10in /  1019.2hPa West 8.0mph /  12.9km/h 10.0mph /  16.1km/h 73% 0.00in /  0mm
10:14 76.6 °F /  24.8 °C 66.5 °F /  19.2 °C 30.10in /  1019.2hPa WSW 5.0mph /  8km/h 10.0mph /  16.1km/h 71% 0.00in /  0mm
10:19 76.8 °F /  24.9 °C 67.1 °F /  19.5 °C 30.10in /  1019.2hPa WSW 5.0mph /  8km/h 10.0mph /  16.1km/h 72% 0.00in /  0mm
10:24 77.3 °F /  25.2 °C 67.2 °F /  19.6 °C 30.10in /  1019.2hPa WSW 5.0mph /  8km/h 10.0mph /  16.1km/h 71% 0.00in /  0mm
10:29 77.5 °F /  25.3 °C 67.4 °F /  19.7 °C 30.10in /  1019.2hPa SW 6.0mph /  9.7km/h 12.0mph /  19.3km/h 71% 0.00in /  0mm
10:34 77.3 °F /  25.2 °C 68.0 °F /  20 °C 30.10in /  1019.2hPa WSW 4.0mph /  6.4km/h 8.0mph /  12.9km/h 73% 0.00in /  0mm
10:39 77.5 °F /  25.3 °C 67.4 °F /  19.7 °C 30.10in /  1019.2hPa SW 3.0mph /  4.8km/h 8.0mph /  12.9km/h 71% 0.00in /  0mm
10:44 77.5 °F /  25.3 °C 67.8 °F /  19.9 °C 30.10in /  1019.2hPa WSW 5.0mph /  8km/h 11.0mph /  17.7km/h 72% 0.00in /  0mm
10:49 77.3 °F /  25.2 °C 68.4 °F /  20.2 °C 30.09in /  1018.8hPa SW 5.0mph /  8km/h 11.0mph /  17.7km/h 74% 0.00in /  0mm
10:54 77.7 °F /  25.4 °C 68.7 °F /  20.4 °C 30.09in /  1018.8hPa SW 5.0mph /  8km/h 11.0mph /  17.7km/h 74% 0.00in /  0mm
10:59 77.6 °F /  25.3 °C 68.3 °F /  20.2 °C 30.09in /  1018.8hPa SW 6.0mph /  9.7km/h 14.0mph /  22.5km/h 73% 0.00in /  0mm
11:04 77.7 °F /  25.4 °C 68.7 °F /  20.4 °C 30.09in /  1018.8hPa WSW 6.0mph /  9.7km/h 13.0mph /  20.9km/h 74% 0.00in /  0mm
11:09 78.1 °F /  25.6 °C 68.7 °F /  20.4 °C 30.09in /  1018.8hPa South 6.0mph /  9.7km/h 10.0mph /  16.1km/h 73% 0.00in /  0mm
11:14 78.4 °F /  25.8 °C 68.6 °F /  20.3 °C 30.09in /  1018.8hPa SW 5.0mph /  8km/h 12.0mph /  19.3km/h 72% 0.00in /  0mm
11:19 78.2 °F /  25.7 °C 69.2 °F /  20.7 °C 30.09in /  1018.8hPa SW 7.0mph /  11.3km/h 13.0mph /  20.9km/h 74% 0.00in /  0mm
11:24 78.1 °F /  25.6 °C 68.7 °F /  20.4 °C 30.09in /  1018.8hPa West 3.0mph /  4.8km/h 10.0mph /  16.1km/h 73% 0.00in /  0mm
11:29 78.4 °F /  25.8 °C 68.2 °F /  20.1 °C 30.09in /  1018.8hPa West 9.0mph /  14.5km/h 11.0mph /  17.7km/h 71% 0.00in /  0mm
11:34 78.9 °F /  26.1 °C 68.7 °F /  20.4 °C 30.09in /  1018.8hPa SW 6.0mph /  9.7km/h 13.0mph /  20.9km/h 71% 0.00in /  0mm
11:39 78.7 °F /  25.9 °C 68.5 °F /  20.3 °C 30.10in /  1019.2hPa West 4.0mph /  6.4km/h 10.0mph /  16.1km/h 71% 0.00in /  0mm
11:44 78.8 °F /  26 °C 68.2 °F /  20.1 °C 30.09in /  1018.8hPa SW 6.0mph /  9.7km/h 12.0mph /  19.3km/h 70% 0.00in /  0mm
11:54 78.9 °F /  26.1 °C 65.7 °F /  18.7 °C 30.09in /  1018.8hPa WSW 6.0mph /  9.7km/h 13.0mph /  20.9km/h 64% 0.00in /  0mm
11:59 79.3 °F /  26.3 °C 66.5 °F /  19.2 °C 30.09in /  1018.8hPa WSW 6.0mph /  9.7km/h 11.0mph /  17.7km/h 65% 0.00in /  0mm
12:04 79.9 °F /  26.6 °C 67.1 °F /  19.5 °C 30.09in /  1018.8hPa WSW 6.0mph /  9.7km/h 11.0mph /  17.7km/h 65% 0.00in /  0mm
12:09 79.9 °F /  26.6 °C 66.6 °F /  19.2 °C 30.09in /  1018.8hPa West 4.0mph /  6.4km/h 10.0mph /  16.1km/h 64% 0.00in /  0mm
12:14 80.5 °F /  26.9 °C 66.7 °F /  19.3 °C 30.09in /  1018.8hPa West 7.0mph /  11.3km/h 10.0mph /  16.1km/h 63% 0.00in /  0mm
12:19 80.1 °F /  26.7 °C 66.8 °F /  19.3 °C 30.09in /  1018.8hPa WSW 6.0mph /  9.7km/h 11.0mph /  17.7km/h 64% 0.00in /  0mm
12:24 80.3 °F /  26.8 °C 67.0 °F /  19.4 °C 30.09in /  1018.8hPa SW 6.0mph /  9.7km/h 11.0mph /  17.7km/h 64% 0.00in /  0mm
12:29 80.4 °F /  26.9 °C 67.1 °F /  19.5 °C 30.09in /  1018.8hPa SSW 5.0mph /  8km/h 10.0mph /  16.1km/h 64% 0.00in /  0mm
12:34 81.1 °F /  27.3 °C 69.1 °F /  20.6 °C 30.09in /  1018.8hPa WSW 2.0mph /  3.2km/h 10.0mph /  16.1km/h 67% 0.00in /  0mm
12:39 80.5 °F /  26.9 °C 67.6 °F /  19.8 °C 30.09in /  1018.8hPa WSW 7.0mph /  11.3km/h 15.0mph /  24.1km/h 65% 0.00in /  0mm
12:44 80.0 °F /  26.7 °C 66.7 °F /  19.3 °C 30.08in /  1018.5hPa SW 6.0mph /  9.7km/h 15.0mph /  24.1km/h 64% 0.00in /  0mm
12:49 80.2 °F /  26.8 °C 66.0 °F /  18.9 °C 30.09in /  1018.8hPa WSW 6.0mph /  9.7km/h 11.0mph /  17.7km/h 62% 0.00in /  0mm
12:54 80.3 °F /  26.8 °C 67.0 °F /  19.4 °C 30.08in /  1018.5hPa WSW 6.0mph /  9.7km/h 13.0mph /  20.9km/h 64% 0.00in /  0mm
12:59 80.6 °F /  27 °C 67.3 °F /  19.6 °C 30.08in /  1018.5hPa WSW 6.0mph /  9.7km/h 13.0mph /  20.9km/h 64% 0.00in /  0mm
13:04 79.9 °F /  26.6 °C 66.2 °F /  19 °C 30.08in /  1018.5hPa SW 6.0mph /  9.7km/h 11.0mph /  17.7km/h 63% 0.00in /  0mm
13:09 79.7 °F /  26.5 °C 66.0 °F /  18.9 °C 30.08in /  1018.5hPa South 4.0mph /  6.4km/h 12.0mph /  19.3km/h 63% 0.00in /  0mm
13:14 80.0 °F /  26.7 °C 66.7 °F /  19.3 °C 30.08in /  1018.5hPa SW 7.0mph /  11.3km/h 12.0mph /  19.3km/h 64% 0.00in /  0mm
13:19 80.0 °F /  26.7 °C 66.3 °F /  19.1 °C 30.08in /  1018.5hPa WSW 6.0mph /  9.7km/h 13.0mph /  20.9km/h 63% 0.00in /  0mm
13:24 80.6 °F /  27 °C 67.3 °F /  19.6 °C 30.08in /  1018.5hPa WSW 8.0mph /  12.9km/h 11.0mph /  17.7km/h 64% 0.00in /  0mm
13:29 80.9 °F /  27.2 °C 67.6 °F /  19.8 °C 30.08in /  1018.5hPa WSW 4.0mph /  6.4km/h 12.0mph /  19.3km/h 64% 0.00in /  0mm
13:34 80.7 °F /  27.1 °C 66.9 °F /  19.4 °C 30.08in /  1018.5hPa SW 9.0mph /  14.5km/h 11.0mph /  17.7km/h 63% 0.00in /  0mm
13:39 80.0 °F /  26.7 °C 65.8 °F /  18.8 °C 30.08in /  1018.5hPa WSW 8.0mph /  12.9km/h 12.0mph /  19.3km/h 62% 0.00in /  0mm
13:44 80.5 °F /  26.9 °C 67.6 °F /  19.8 °C 30.08in /  1018.5hPa SW 7.0mph /  11.3km/h 13.0mph /  20.9km/h 65% 0.00in /  0mm
13:49 80.5 °F /  26.9 °C 66.3 °F /  19.1 °C 30.08in /  1018.5hPa WSW 6.0mph /  9.7km/h 14.0mph /  22.5km/h 62% 0.00in /  0mm
13:54 80.4 °F /  26.9 °C 66.6 °F /  19.2 °C 30.08in /  1018.5hPa WSW 7.0mph /  11.3km/h 14.0mph /  22.5km/h 63% 0.00in /  0mm
13:59 81.2 °F /  27.3 °C 66.9 °F /  19.4 °C 30.07in /  1018.2hPa WSW 6.0mph /  9.7km/h 13.0mph /  20.9km/h 62% 0.00in /  0mm
14:04 80.9 °F /  27.2 °C 66.7 °F /  19.3 °C 30.07in /  1018.2hPa WSW 6.0mph /  9.7km/h 11.0mph /  17.7km/h 62% 0.00in /  0mm
14:09 80.9 °F /  27.2 °C 66.2 °F /  19 °C 30.07in /  1018.2hPa West 5.0mph /  8km/h 14.0mph /  22.5km/h 61% 0.00in /  0mm
14:14 80.8 °F /  27.1 °C 67.0 °F /  19.4 °C 30.07in /  1018.2hPa SSW 7.0mph /  11.3km/h 11.0mph /  17.7km/h 63% 0.00in /  0mm
14:19 80.7 °F /  27.1 °C 66.9 °F /  19.4 °C 30.07in /  1018.2hPa West 6.0mph /  9.7km/h 13.0mph /  20.9km/h 63% 0.00in /  0mm
14:24 81.3 °F /  27.4 °C 67.0 °F /  19.4 °C 30.07in /  1018.2hPa NW 6.0mph /  9.7km/h 13.0mph /  20.9km/h 62% 0.00in /  0mm
14:29 81.0 °F /  27.2 °C 65.3 °F /  18.5 °C 30.07in /  1018.2hPa SSW 3.0mph /  4.8km/h 12.0mph /  19.3km/h 59% 0.00in /  0mm
14:34 80.8 °F /  27.1 °C 66.6 °F /  19.2 °C 30.07in /  1018.2hPa WSW 6.0mph /  9.7km/h 12.0mph /  19.3km/h 62% 0.00in /  0mm
14:39 81.4 °F /  27.4 °C 66.2 °F /  19 °C 30.07in /  1018.2hPa WSW 6.0mph /  9.7km/h 12.0mph /  19.3km/h 60% 0.00in /  0mm
14:49 81.3 °F /  27.4 °C 66.1 °F /  18.9 °C 30.07in /  1018.2hPa SW 10.0mph /  16.1km/h 11.0mph /  17.7km/h 60% 0.00in /  0mm
14:54 81.0 °F /  27.2 °C 66.3 °F /  19.1 °C 30.06in /  1017.8hPa West 9.0mph /  14.5km/h 13.0mph /  20.9km/h 61% 0.00in /  0mm
14:59 81.0 °F /  27.2 °C 65.8 °F /  18.8 °C 30.06in /  1017.8hPa SW 9.0mph /  14.5km/h 13.0mph /  20.9km/h 60% 0.00in /  0mm
15:04 81.4 °F /  27.4 °C 65.7 °F /  18.7 °C 30.06in /  1017.8hPa WSW 7.0mph /  11.3km/h 13.0mph /  20.9km/h 59% 0.00in /  0mm
15:09 81.2 °F /  27.3 °C 65.5 °F /  18.6 °C 30.06in /  1017.8hPa WSW 7.0mph /  11.3km/h 14.0mph /  22.5km/h 59% 0.00in /  0mm
15:14 81.6 °F /  27.6 °C 66.4 °F /  19.1 °C 30.06in /  1017.8hPa WSW 7.0mph /  11.3km/h 14.0mph /  22.5km/h 60% 0.00in /  0mm
15:19 82.0 °F /  27.8 °C 65.3 °F /  18.5 °C 30.06in /  1017.8hPa WSW 6.0mph /  9.7km/h 13.0mph /  20.9km/h 57% 0.00in /  0mm
15:24 81.4 °F /  27.4 °C 65.2 °F /  18.4 °C 30.06in /  1017.8hPa WSW 7.0mph /  11.3km/h 15.0mph /  24.1km/h 58% 0.00in /  0mm
15:29 81.3 °F /  27.4 °C 66.1 °F /  18.9 °C 30.06in /  1017.8hPa SW 5.0mph /  8km/h 14.0mph /  22.5km/h 60% 0.00in /  0mm
15:34 82.5 °F /  28.1 °C 66.2 °F /  19 °C 30.06in /  1017.8hPa West 5.0mph /  8km/h 10.0mph /  16.1km/h 58% 0.00in /  0mm
15:39 82.3 °F /  27.9 °C 66.5 °F /  19.2 °C 30.06in /  1017.8hPa WSW 7.0mph /  11.3km/h 11.0mph /  17.7km/h 59% 0.00in /  0mm
15:44 81.9 °F /  27.7 °C 66.6 °F /  19.2 °C 30.06in /  1017.8hPa SSE 5.0mph /  8km/h 13.0mph /  20.9km/h 60% 0.00in /  0mm
15:49 81.5 °F /  27.5 °C 66.8 °F /  19.3 °C 30.06in /  1017.8hPa West 3.0mph /  4.8km/h 13.0mph /  20.9km/h 61% 0.00in /  0mm
15:54 81.6 °F /  27.6 °C 66.8 °F /  19.3 °C 30.06in /  1017.8hPa West 8.0mph /  12.9km/h 10.0mph /  16.1km/h 61% 0.00in /  0mm
15:59 81.5 °F /  27.5 °C 66.3 °F /  19.1 °C 30.05in /  1017.5hPa SW 3.0mph /  4.8km/h 11.0mph /  17.7km/h 60% 0.00in /  0mm
16:04 81.5 °F /  27.5 °C 66.8 °F /  19.3 °C 30.06in /  1017.8hPa WSW 6.0mph /  9.7km/h 15.0mph /  24.1km/h 61% 0.00in /  0mm
16:09 81.0 °F /  27.2 °C 67.2 °F /  19.6 °C 30.06in /  1017.8hPa WSW 6.0mph /  9.7km/h 15.0mph /  24.1km/h 63% 0.00in /  0mm
16:14 80.5 °F /  26.9 °C 66.7 °F /  19.3 °C 30.05in /  1017.5hPa WSW 6.0mph /  9.7km/h 12.0mph /  19.3km/h 63% 0.00in /  0mm
16:19 81.4 °F /  27.4 °C 68.1 °F /  20.1 °C 30.05in /  1017.5hPa WSW 6.0mph /  9.7km/h 12.0mph /  19.3km/h 64% 0.00in /  0mm
16:24 81.4 °F /  27.4 °C 67.1 °F /  19.5 °C 30.06in /  1017.8hPa WSW 5.0mph /  8km/h 11.0mph /  17.7km/h 62% 0.00in /  0mm
16:29 81.2 °F /  27.3 °C 66.9 °F /  19.4 °C 30.05in /  1017.5hPa WSW 9.0mph /  14.5km/h 11.0mph /  17.7km/h 62% 0.00in /  0mm
16:34 80.0 °F /  26.7 °C 65.8 °F /  18.8 °C 30.06in /  1017.8hPa WSW 6.0mph /  9.7km/h 13.0mph /  20.9km/h 62% 0.00in /  0mm
16:39 79.0 °F /  26.1 °C 65.8 °F /  18.8 °C 30.06in /  1017.8hPa West 3.0mph /  4.8km/h 13.0mph /  20.9km/h 64% 0.00in /  0mm
16:44 78.5 °F /  25.8 °C 65.8 °F /  18.8 °C 30.06in /  1017.8hPa WSW 6.0mph /  9.7km/h 12.0mph /  19.3km/h 65% 0.00in /  0mm
16:49 78.1 °F /  25.6 °C 66.2 °F /  19 °C 30.06in /  1017.8hPa WSW 5.0mph /  8km/h 11.0mph /  17.7km/h 67% 0.00in /  0mm
16:54 77.7 °F /  25.4 °C 66.7 °F /  19.3 °C 30.06in /  1017.8hPa SW 3.0mph /  4.8km/h 8.0mph /  12.9km/h 69% 0.00in /  0mm
16:59 77.6 °F /  25.3 °C 67.0 °F /  19.4 °C 30.05in /  1017.5hPa WSW 4.0mph /  6.4km/h 8.0mph /  12.9km/h 70% 0.00in /  0mm
17:04 77.3 °F /  25.2 °C 66.7 °F /  19.3 °C 30.05in /  1017.5hPa WSW 4.0mph /  6.4km/h 8.0mph /  12.9km/h 70% 0.00in /  0mm
17:09 76.8 °F /  24.9 °C 66.7 °F /  19.3 °C 30.05in /  1017.5hPa SW 5.0mph /  8km/h 10.0mph /  16.1km/h 71% 0.00in /  0mm
17:14 76.6 °F /  24.8 °C 66.9 °F /  19.4 °C 30.04in /  1017.2hPa SW 5.0mph /  8km/h 11.0mph /  17.7km/h 72% 0.00in /  0mm
17:19 76.6 °F /  24.8 °C 66.9 °F /  19.4 °C 30.05in /  1017.5hPa WSW 1.0mph /  1.6km/h 12.0mph /  19.3km/h 72% 0.00in /  0mm
17:24 76.7 °F /  24.8 °C 66.6 °F /  19.2 °C 30.05in /  1017.5hPa WSW 6.0mph /  9.7km/h 10.0mph /  16.1km/h 71% 0.00in /  0mm
17:29 76.7 °F /  24.8 °C 67.0 °F /  19.4 °C 30.06in /  1017.8hPa WSW 4.0mph /  6.4km/h 8.0mph /  12.9km/h 72% 0.00in /  0mm
17:34 76.7 °F /  24.8 °C 66.6 °F /  19.2 °C 30.06in /  1017.8hPa West 4.0mph /  6.4km/h 7.0mph /  11.3km/h 71% 0.00in /  0mm
17:39 76.8 °F /  24.9 °C 67.1 °F /  19.5 °C 30.06in /  1017.8hPa WSW 5.0mph /  8km/h 8.0mph /  12.9km/h 72% 0.00in /  0mm
17:44 76.4 °F /  24.7 °C 67.1 °F /  19.5 °C 30.06in /  1017.8hPa West 3.0mph /  4.8km/h 8.0mph /  12.9km/h 73% 0.00in /  0mm
17:49 76.4 °F /  24.7 °C 67.5 °F /  19.7 °C 30.06in /  1017.8hPa West 2.0mph /  3.2km/h 7.0mph /  11.3km/h 74% 0.00in /  0mm
17:54 76.2 °F /  24.6 °C 67.3 °F /  19.6 °C 30.05in /  1017.5hPa WSW 1.0mph /  1.6km/h 7.0mph /  11.3km/h 74% 0.00in /  0mm
17:59 76.2 °F /  24.6 °C 67.3 °F /  19.6 °C 30.05in /  1017.5hPa WSW 3.0mph /  4.8km/h 7.0mph /  11.3km/h 74% 0.00in /  0mm
18:04 76.4 °F /  24.7 °C 67.5 °F /  19.7 °C 30.05in /  1017.5hPa WSW 2.0mph /  3.2km/h 6.0mph /  9.7km/h 74% 0.00in /  0mm
18:09 76.2 °F /  24.6 °C 68.5 °F /  20.3 °C 30.05in /  1017.5hPa SW 2.0mph /  3.2km/h 4.0mph /  6.4km/h 77% 0.00in /  0mm
18:14 75.7 °F /  24.3 °C 68.7 °F /  20.4 °C 30.05in /  1017.5hPa WSW 1.0mph /  1.6km/h 3.0mph /  4.8km/h 79% 0.00in /  0mm
18:19 75.5 °F /  24.2 °C 68.5 °F /  20.3 °C 30.05in /  1017.5hPa Calm   4.0mph /  6.4km/h 79% 0.01in /  0.25mm
18:24 75.2 °F /  24 °C 68.2 °F /  20.1 °C 30.05in /  1017.5hPa SW 2.0mph /  3.2km/h 3.0mph /  4.8km/h 79% 0.01in /  0.25mm
18:29 75.1 °F /  23.9 °C 68.5 °F /  20.3 °C 30.05in /  1017.5hPa SW 2.0mph /  3.2km/h 5.0mph /  8km/h 80% 0.01in /  0.25mm
18:34 74.9 °F /  23.8 °C 68.3 °F /  20.2 °C 30.05in /  1017.5hPa SW 3.0mph /  4.8km/h 7.0mph /  11.3km/h 80% 0.01in /  0.25mm
18:39 74.6 °F /  23.7 °C 67.7 °F /  19.8 °C 30.05in /  1017.5hPa WSW 1.0mph /  1.6km/h 7.0mph /  11.3km/h 79% 0.01in /  0.25mm
18:44 74.5 °F /  23.6 °C 67.9 °F /  19.9 °C 30.05in /  1017.5hPa SW 2.0mph /  3.2km/h 8.0mph /  12.9km/h 80% 0.01in /  0.25mm
18:49 74.5 °F /  23.6 °C 67.9 °F /  19.9 °C 30.04in /  1017.2hPa SW 2.0mph /  3.2km/h 6.0mph /  9.7km/h 80% 0.01in /  0.25mm
18:54 74.5 °F /  23.6 °C 68.3 °F /  20.2 °C 30.05in /  1017.5hPa Calm   6.0mph /  9.7km/h 81% 0.01in /  0.25mm
18:59 74.5 °F /  23.6 °C 68.3 °F /  20.2 °C 30.05in /  1017.5hPa SW 3.0mph /  4.8km/h 6.0mph /  9.7km/h 81% 0.01in /  0.25mm
19:04 74.5 °F /  23.6 °C 68.3 °F /  20.2 °C 30.04in /  1017.2hPa WSW 3.0mph /  4.8km/h 8.0mph /  12.9km/h 81% 0.01in /  0.25mm
19:09 74.7 °F /  23.7 °C 68.5 °F /  20.3 °C 30.04in /  1017.2hPa SW 3.0mph /  4.8km/h 8.0mph /  12.9km/h 81% 0.01in /  0.25mm
19:14 75.0 °F /  23.9 °C 68.4 °F /  20.2 °C 30.04in /  1017.2hPa SW 3.0mph /  4.8km/h 8.0mph /  12.9km/h 80% 0.01in /  0.25mm
19:19 75.4 °F /  24.1 °C 68.8 °F /  20.4 °C 30.04in /  1017.2hPa SSW 4.0mph /  6.4km/h 7.0mph /  11.3km/h 80% 0.00in /  0mm
19:24 75.4 °F /  24.1 °C 68.4 °F /  20.2 °C 30.04in /  1017.2hPa SW 4.0mph /  6.4km/h 8.0mph /  12.9km/h 79% 0.00in /  0mm
19:29 75.5 °F /  24.2 °C 68.5 °F /  20.3 °C 30.04in /  1017.2hPa SW 4.0mph /  6.4km/h 8.0mph /  12.9km/h 79% 0.00in /  0mm
19:34 75.6 °F /  24.2 °C 68.3 °F /  20.2 °C 30.04in /  1017.2hPa SW 4.0mph /  6.4km/h 9.0mph /  14.5km/h 78% 0.00in /  0mm
19:39 75.6 °F /  24.2 °C 68.3 °F /  20.2 °C 30.04in /  1017.2hPa SW 4.0mph /  6.4km/h 10.0mph /  16.1km/h 78% 0.00in /  0mm
19:44 75.6 °F /  24.2 °C 68.3 °F /  20.2 °C 30.04in /  1017.2hPa SW 4.0mph /  6.4km/h 10.0mph /  16.1km/h 78% 0.00in /  0mm
19:49 75.4 °F /  24.1 °C 68.1 °F /  20.1 °C 30.03in /  1016.8hPa SSW 3.0mph /  4.8km/h 11.0mph /  17.7km/h 78% 0.00in /  0mm
19:54 75.2 °F /  24 °C 68.2 °F /  20.1 °C 30.04in /  1017.2hPa SW 6.0mph /  9.7km/h 13.0mph /  20.9km/h 79% 0.00in /  0mm
19:59 75.0 °F /  23.9 °C 68.0 °F /  20 °C 30.03in /  1016.8hPa SSW 4.0mph /  6.4km/h 7.0mph /  11.3km/h 79% 0.00in /  0mm
20:04 75.0 °F /  23.9 °C 68.0 °F /  20 °C 30.04in /  1017.2hPa West 3.0mph /  4.8km/h 9.0mph /  14.5km/h 79% 0.00in /  0mm
20:09 74.9 °F /  23.8 °C 67.6 °F /  19.8 °C 30.04in /  1017.2hPa SW 6.0mph /  9.7km/h 8.0mph /  12.9km/h 78% 0.00in /  0mm
20:14 74.8 °F /  23.8 °C 67.5 °F /  19.7 °C 30.04in /  1017.2hPa SW 2.0mph /  3.2km/h 8.0mph /  12.9km/h 78% 0.00in /  0mm
20:19 74.7 °F /  23.7 °C 67.8 °F /  19.9 °C 30.04in /  1017.2hPa WSW 2.0mph /  3.2km/h 6.0mph /  9.7km/h 79% 0.00in /  0mm
20:24 74.6 °F /  23.7 °C 67.7 °F /  19.8 °C 30.05in /  1017.5hPa SW 3.0mph /  4.8km/h 8.0mph /  12.9km/h 79% 0.00in /  0mm
20:29 74.4 °F /  23.6 °C 67.5 °F /  19.7 °C 30.05in /  1017.5hPa WSW 4.0mph /  6.4km/h 9.0mph /  14.5km/h 79% 0.00in /  0mm
20:34 74.2 °F /  23.4 °C 67.3 °F /  19.6 °C 30.05in /  1017.5hPa WSW 4.0mph /  6.4km/h 9.0mph /  14.5km/h 79% 0.00in /  0mm
20:39 74.1 °F /  23.4 °C 67.2 °F /  19.6 °C 30.05in /  1017.5hPa WSW 3.0mph /  4.8km/h 6.0mph /  9.7km/h 79% 0.00in /  0mm
20:44 73.9 °F /  23.3 °C 67.0 °F /  19.4 °C 30.04in /  1017.2hPa South 2.0mph /  3.2km/h 6.0mph /  9.7km/h 79% 0.00in /  0mm
20:49 73.8 °F /  23.2 °C 66.9 °F /  19.4 °C 30.04in /  1017.2hPa SW 2.0mph /  3.2km/h 7.0mph /  11.3km/h 79% 0.00in /  0mm
20:54 73.6 °F /  23.1 °C 67.0 °F /  19.4 °C 30.05in /  1017.5hPa SSW 2.0mph /  3.2km/h 6.0mph /  9.7km/h 80% 0.00in /  0mm
20:59 73.4 °F /  23 °C 66.5 °F /  19.2 °C 30.05in /  1017.5hPa Calm   4.0mph /  6.4km/h 79% 0.00in /  0mm
21:04 73.4 °F /  23 °C 66.9 °F /  19.4 °C 30.05in /  1017.5hPa Calm   4.0mph /  6.4km/h 80% 0.00in /  0mm
21:09 73.3 °F /  22.9 °C 66.8 °F /  19.3 °C 30.05in /  1017.5hPa SW 1.0mph /  1.6km/h 5.0mph /  8km/h 80% 0.00in /  0mm
21:14 73.1 °F /  22.8 °C 66.6 °F /  19.2 °C 30.05in /  1017.5hPa Calm   5.0mph /  8km/h 80% 0.00in /  0mm
21:19 73.0 °F /  22.8 °C 66.5 °F /  19.2 °C 30.06in /  1017.8hPa WSW 2.0mph /  3.2km/h 5.0mph /  8km/h 80% 0.00in /  0mm
21:24 72.9 °F /  22.7 °C 66.4 °F /  19.1 °C 30.06in /  1017.8hPa WSW 2.0mph /  3.2km/h 5.0mph /  8km/h 80% 0.00in /  0mm
21:29 72.9 °F /  22.7 °C 66.0 °F /  18.9 °C 30.06in /  1017.8hPa SW 1.0mph /  1.6km/h 5.0mph /  8km/h 79% 0.00in /  0mm
21:34 72.8 °F /  22.7 °C 65.9 °F /  18.8 °C 30.06in /  1017.8hPa SW 1.0mph /  1.6km/h 3.0mph /  4.8km/h 79% 0.00in /  0mm
21:39 72.7 °F /  22.6 °C 66.2 °F /  19 °C 30.06in /  1017.8hPa SW 1.0mph /  1.6km/h 5.0mph /  8km/h 80% 0.00in /  0mm
21:44 72.6 °F /  22.6 °C 66.1 °F /  18.9 °C 30.06in /  1017.8hPa SW 1.0mph /  1.6km/h 5.0mph /  8km/h 80% 0.00in /  0mm
21:49 72.6 °F /  22.6 °C 66.1 °F /  18.9 °C 30.06in /  1017.8hPa Calm     80% 0.00in /  0mm
21:54 72.6 °F /  22.6 °C 66.4 °F /  19.1 °C 30.06in /  1017.8hPa Calm     81% 0.00in /  0mm
21:59 72.4 °F /  22.4 °C 66.2 °F /  19 °C 30.06in /  1017.8hPa Calm     81% 0.00in /  0mm
22:04 72.3 °F /  22.4 °C 66.5 °F /  19.2 °C 30.06in /  1017.8hPa WSW 1.0mph /  1.6km/h 3.0mph /  4.8km/h 82% 0.00in /  0mm
22:09 72.4 °F /  22.4 °C 66.9 °F /  19.4 °C 30.06in /  1017.8hPa WSW 1.0mph /  1.6km/h 4.0mph /  6.4km/h 83% 0.00in /  0mm
22:14 72.4 °F /  22.4 °C 66.9 °F /  19.4 °C 30.06in /  1017.8hPa Calm   3.0mph /  4.8km/h 83% 0.00in /  0mm
22:19 72.2 °F /  22.3 °C 67.1 °F /  19.5 °C 30.06in /  1017.8hPa Calm   3.0mph /  4.8km/h 84% 0.00in /  0mm
22:24 72.3 °F /  22.4 °C 67.5 °F /  19.7 °C 30.06in /  1017.8hPa SSW 1.0mph /  1.6km/h 4.0mph /  6.4km/h 85% 0.00in /  0mm
22:29 72.2 °F /  22.3 °C 67.4 °F /  19.7 °C 30.06in /  1017.8hPa SSW 1.0mph /  1.6km/h 4.0mph /  6.4km/h 85% 0.00in /  0mm
22:34 72.2 °F /  22.3 °C 67.4 °F /  19.7 °C 30.06in /  1017.8hPa SW 1.0mph /  1.6km/h 5.0mph /  8km/h 85% 0.00in /  0mm
22:39 72.3 °F /  22.4 °C 67.5 °F /  19.7 °C 30.06in /  1017.8hPa SW 2.0mph /  3.2km/h 5.0mph /  8km/h 85% 0.00in /  0mm
22:44 72.3 °F /  22.4 °C 67.2 °F /  19.6 °C 30.06in /  1017.8hPa SW 2.0mph /  3.2km/h 6.0mph /  9.7km/h 84% 0.00in /  0mm
22:49 72.4 °F /  22.4 °C 67.3 °F /  19.6 °C 30.06in /  1017.8hPa SW 1.0mph /  1.6km/h 5.0mph /  8km/h 84% 0.00in /  0mm
22:54 72.4 °F /  22.4 °C 66.9 °F /  19.4 °C 30.05in /  1017.5hPa SW 3.0mph /  4.8km/h 6.0mph /  9.7km/h 83% 0.00in /  0mm
22:59 72.5 °F /  22.5 °C 67.0 °F /  19.4 °C 30.05in /  1017.5hPa WSW 1.0mph /  1.6km/h 4.0mph /  6.4km/h 83% 0.00in /  0mm
23:04 72.4 °F /  22.4 °C 66.9 °F /  19.4 °C 30.05in /  1017.5hPa West 2.0mph /  3.2km/h 3.0mph /  4.8km/h 83% 0.00in /  0mm
23:09 72.4 °F /  22.4 °C 67.3 °F /  19.6 °C 30.05in /  1017.5hPa WSW 1.0mph /  1.6km/h 4.0mph /  6.4km/h 84% 0.00in /  0mm
23:14 72.3 °F /  22.4 °C 67.2 °F /  19.6 °C 30.05in /  1017.5hPa WSW 1.0mph /  1.6km/h 4.0mph /  6.4km/h 84% 0.00in /  0mm
23:19 72.2 °F /  22.3 °C 67.1 °F /  19.5 °C 30.05in /  1017.5hPa WSW 1.0mph /  1.6km/h 4.0mph /  6.4km/h 84% 0.00in /  0mm
23:24 72.1 °F /  22.3 °C 67.0 °F /  19.4 °C 30.05in /  1017.5hPa WSW 1.0mph /  1.6km/h 3.0mph /  4.8km/h 84% 0.00in /  0mm
23:29 72.0 °F /  22.2 °C 66.9 °F /  19.4 °C 30.05in /  1017.5hPa Calm   3.0mph /  4.8km/h 84% 0.00in /  0mm
23:34 71.8 °F /  22.1 °C 66.7 °F /  19.3 °C 30.05in /  1017.5hPa Calm   1.0mph /  1.6km/h 84% 0.00in /  0mm
23:39 71.5 °F /  21.9 °C 66.8 °F /  19.3 °C 30.05in /  1017.5hPa Calm     85% 0.00in /  0mm
23:44 71.2 °F /  21.8 °C 66.5 °F /  19.2 °C 30.05in /  1017.5hPa Calm     85% 0.00in /  0mm
23:49 71.0 °F /  21.7 °C 66.3 °F /  19.1 °C 30.05in /  1017.5hPa Calm     85% 0.00in /  0mm
23:54 70.8 °F /  21.6 °C 66.4 °F /  19.1 °C 30.04in /  1017.2hPa Calm     86% 0.00in /  0mm
23:59 70.6 °F /  21.4 °C 66.2 °F /  19 °C 30.04in /  1017.2hPa Calm     86% 0.00in /  0mm
Buffalo, New York, USA
Compliments of Weather Underground - 2.5 mb